sensor_id;sensor_type;location;lat;lon;timestamp;temperature;humidity
36660;DHT22;22654;51.054;3.654;2022-11-15T00:01:52;11.80;99.90
36660;DHT22;22654;51.054;3.654;2022-11-15T00:04:36;11.90;99.90
36660;DHT22;22654;51.054;3.654;2022-11-15T00:07:21;11.90;99.90
36660;DHT22;22654;51.054;3.654;2022-11-15T00:10:06;11.90;99.90
36660;DHT22;22654;51.054;3.654;2022-11-15T00:12:50;12.10;99.90
36660;DHT22;22654;51.054;3.654;2022-11-15T00:15:35;12.10;99.90
36660;DHT22;22654;51.054;3.654;2022-11-15T00:18:20;12.10;99.90
36660;DHT22;22654;51.054;3.654;2022-11-15T00:21:06;12.10;99.90
36660;DHT22;22654;51.054;3.654;2022-11-15T00:23:51;12.10;99.90
36660;DHT22;22654;51.054;3.654;2022-11-15T00:26:35;12.30;99.90
36660;DHT22;22654;51.054;3.654;2022-11-15T00:29:19;12.40;99.90
36660;DHT22;22654;51.054;3.654;2022-11-15T00:32:03;12.50;99.90
36660;DHT22;22654;51.054;3.654;2022-11-15T00:34:47;12.30;99.90
36660;DHT22;22654;51.054;3.654;2022-11-15T00:37:31;12.30;99.90
36660;DHT22;22654;51.054;3.654;2022-11-15T00:40:15;12.20;99.90
36660;DHT22;22654;51.054;3.654;2022-11-15T00:43:00;12.30;99.90
36660;DHT22;22654;51.054;3.654;2022-11-15T00:45:44;12.30;99.90
36660;DHT22;22654;51.054;3.654;2022-11-15T00:48:28;12.30;99.90
36660;DHT22;22654;51.054;3.654;2022-11-15T00:51:16;12.40;99.90
36660;DHT22;22654;51.054;3.654;2022-11-15T00:54:03;12.30;99.90
36660;DHT22;22654;51.054;3.654;2022-11-15T00:56:50;12.40;99.90
36660;DHT22;22654;51.054;3.654;2022-11-15T00:59:34;12.40;99.90
36660;DHT22;22654;51.054;3.654;2022-11-15T01:02:19;12.40;99.90
36660;DHT22;22654;51.054;3.654;2022-11-15T01:05:04;12.40;99.90
36660;DHT22;22654;51.054;3.654;2022-11-15T01:07:52;12.40;99.90
36660;DHT22;22654;51.054;3.654;2022-11-15T01:10:37;12.30;99.90
36660;DHT22;22654;51.054;3.654;2022-11-15T01:13:21;12.40;99.90
36660;DHT22;22654;51.054;3.654;2022-11-15T01:16:18;12.50;99.90
36660;DHT22;22654;51.054;3.654;2022-11-15T01:19:03;12.40;99.90
36660;DHT22;22654;51.054;3.654;2022-11-15T01:21:50;12.50;99.90
36660;DHT22;22654;51.054;3.654;2022-11-15T01:24:35;12.40;99.90
36660;DHT22;22654;51.054;3.654;2022-11-15T01:27:19;12.30;99.90
36660;DHT22;22654;51.054;3.654;2022-11-15T01:30:04;12.40;99.90
36660;DHT22;22654;51.054;3.654;2022-11-15T01:32:49;12.30;99.90
36660;DHT22;22654;51.054;3.654;2022-11-15T01:35:38;12.20;99.90
36660;DHT22;22654;51.054;3.654;2022-11-15T01:38:23;12.20;99.90
36660;DHT22;22654;51.054;3.654;2022-11-15T01:41:14;12.30;99.90
36660;DHT22;22654;51.054;3.654;2022-11-15T01:47:29;12.30;99.90
36660;DHT22;22654;51.054;3.654;2022-11-15T01:50:19;12.40;99.90
36660;DHT22;22654;51.054;3.654;2022-11-15T01:53:05;12.30;99.90
36660;DHT22;22654;51.054;3.654;2022-11-15T01:55:49;12.30;99.90
36660;DHT22;22654;51.054;3.654;2022-11-15T01:58:34;12.30;99.90
36660;DHT22;22654;51.054;3.654;2022-11-15T02:01:19;12.30;99.90
36660;DHT22;22654;51.054;3.654;2022-11-15T02:04:15;12.20;99.90
36660;DHT22;22654;51.054;3.654;2022-11-15T02:07:03;12.20;99.90
36660;DHT22;22654;51.054;3.654;2022-11-15T02:09:49;12.30;99.90
36660;DHT22;22654;51.054;3.654;2022-11-15T02:12:35;12.30;99.90
36660;DHT22;22654;51.054;3.654;2022-11-15T02:15:19;12.30;99.90
36660;DHT22;22654;51.054;3.654;2022-11-15T02:18:07;12.40;99.90
36660;DHT22;22654;51.054;3.654;2022-11-15T02:24:31;12.30;99.90
36660;DHT22;22654;51.054;3.654;2022-11-15T02:30:41;12.40;99.90
36660;DHT22;22654;51.054;3.654;2022-11-15T02:33:41;12.10;99.90
36660;DHT22;22654;51.054;3.654;2022-11-15T02:43:02;12.20;99.90
36660;DHT22;22654;51.054;3.654;2022-11-15T02:46:22;12.30;99.90
36660;DHT22;22654;51.054;3.654;2022-11-15T02:49:30;12.20;99.90
36660;DHT22;22654;51.054;3.654;2022-11-15T02:52:17;12.20;99.90
36660;DHT22;22654;51.054;3.654;2022-11-15T02:55:02;12.10;99.90
36660;DHT22;22654;51.054;3.654;2022-11-15T02:58:17;12.10;99.90
36660;DHT22;22654;51.054;3.654;2022-11-15T03:01:23;12.00;99.90
36660;DHT22;22654;51.054;3.654;2022-11-15T03:07:25;12.00;99.90
36660;DHT22;22654;51.054;3.654;2022-11-15T03:10:21;12.10;99.90
36660;DHT22;22654;51.054;3.654;2022-11-15T03:16:06;11.90;99.90
36660;DHT22;22654;51.054;3.654;2022-11-15T03:21:59;11.80;99.90
36660;DHT22;22654;51.054;3.654;2022-11-15T03:24:46;11.70;99.90
36660;DHT22;22654;51.054;3.654;2022-11-15T03:27:36;11.70;99.90
36660;DHT22;22654;51.054;3.654;2022-11-15T03:30:22;11.60;99.90
36660;DHT22;22654;51.054;3.654;2022-11-15T03:33:08;11.60;99.90
36660;DHT22;22654;51.054;3.654;2022-11-15T03:35:53;11.50;99.90
36660;DHT22;22654;51.054;3.654;2022-11-15T03:38:38;11.50;99.90
36660;DHT22;22654;51.054;3.654;2022-11-15T03:42:08;11.40;99.90
36660;DHT22;22654;51.054;3.654;2022-11-15T03:47:59;11.30;99.90
36660;DHT22;22654;51.054;3.654;2022-11-15T03:50:45;11.20;99.90
36660;DHT22;22654;51.054;3.654;2022-11-15T03:53:30;11.10;99.90
36660;DHT22;22654;51.054;3.654;2022-11-15T03:56:15;11.00;99.90
36660;DHT22;22654;51.054;3.654;2022-11-15T03:59:00;11.00;99.90
36660;DHT22;22654;51.054;3.654;2022-11-15T04:01:45;11.00;99.90
36660;DHT22;22654;51.054;3.654;2022-11-15T04:04:29;11.10;99.90
36660;DHT22;22654;51.054;3.654;2022-11-15T04:07:14;11.10;99.90
36660;DHT22;22654;51.054;3.654;2022-11-15T04:09:58;11.10;99.90
36660;DHT22;22654;51.054;3.654;2022-11-15T04:12:50;11.00;99.90
36660;DHT22;22654;51.054;3.654;2022-11-15T04:15:35;11.00;99.90
36660;DHT22;22654;51.054;3.654;2022-11-15T04:18:19;10.80;99.90
36660;DHT22;22654;51.054;3.654;2022-11-15T04:21:10;10.70;99.90
36660;DHT22;22654;51.054;3.654;2022-11-15T04:24:13;10.70;99.90
36660;DHT22;22654;51.054;3.654;2022-11-15T04:26:58;10.50;99.90
36660;DHT22;22654;51.054;3.654;2022-11-15T04:29:43;10.50;99.90
36660;DHT22;22654;51.054;3.654;2022-11-15T04:32:27;10.40;99.90
36660;DHT22;22654;51.054;3.654;2022-11-15T04:35:11;10.20;99.90
36660;DHT22;22654;51.054;3.654;2022-11-15T04:37:56;10.30;99.90
36660;DHT22;22654;51.054;3.654;2022-11-15T04:40:41;10.40;99.90
36660;DHT22;22654;51.054;3.654;2022-11-15T04:43:25;10.30;99.90
36660;DHT22;22654;51.054;3.654;2022-11-15T04:46:09;10.30;99.90
36660;DHT22;22654;51.054;3.654;2022-11-15T04:48:54;10.30;99.90
36660;DHT22;22654;51.054;3.654;2022-11-15T04:51:38;10.30;99.90
36660;DHT22;22654;51.054;3.654;2022-11-15T04:54:23;10.30;99.90
36660;DHT22;22654;51.054;3.654;2022-11-15T04:57:07;10.20;99.90
36660;DHT22;22654;51.054;3.654;2022-11-15T04:59:52;10.00;99.90
36660;DHT22;22654;51.054;3.654;2022-11-15T05:02:36;10.00;99.90
36660;DHT22;22654;51.054;3.654;2022-11-15T05:05:40;9.90;99.90
36660;DHT22;22654;51.054;3.654;2022-11-15T05:08:24;9.90;99.90
36660;DHT22;22654;51.054;3.654;2022-11-15T05:11:08;9.80;99.90
36660;DHT22;22654;51.054;3.654;2022-11-15T05:13:53;9.70;99.90
36660;DHT22;22654;51.054;3.654;2022-11-15T05:16:38;9.80;99.90
36660;DHT22;22654;51.054;3.654;2022-11-15T05:19:23;9.90;99.90
36660;DHT22;22654;51.054;3.654;2022-11-15T05:22:07;9.90;99.90
36660;DHT22;22654;51.054;3.654;2022-11-15T05:24:54;9.80;99.90
36660;DHT22;22654;51.054;3.654;2022-11-15T05:27:39;9.80;99.90
36660;DHT22;22654;51.054;3.654;2022-11-15T05:30:24;9.80;99.90
36660;DHT22;22654;51.054;3.654;2022-11-15T05:33:08;9.70;99.90
36660;DHT22;22654;51.054;3.654;2022-11-15T05:38:56;9.70;99.90
36660;DHT22;22654;51.054;3.654;2022-11-15T05:41:52;9.70;99.90
36660;DHT22;22654;51.054;3.654;2022-11-15T05:44:40;9.70;99.90
36660;DHT22;22654;51.054;3.654;2022-11-15T05:47:27;9.80;99.90
36660;DHT22;22654;51.054;3.654;2022-11-15T05:50:16;9.70;99.90
36660;DHT22;22654;51.054;3.654;2022-11-15T05:53:01;9.60;99.90
36660;DHT22;22654;51.054;3.654;2022-11-15T05:55:46;9.70;99.90
36660;DHT22;22654;51.054;3.654;2022-11-15T05:58:34;9.70;99.90
36660;DHT22;22654;51.054;3.654;2022-11-15T06:01:20;9.60;99.90
36660;DHT22;22654;51.054;3.654;2022-11-15T06:04:05;9.50;99.90
36660;DHT22;22654;51.054;3.654;2022-11-15T06:06:49;9.50;99.90
36660;DHT22;22654;51.054;3.654;2022-11-15T06:09:34;9.50;99.90
36660;DHT22;22654;51.054;3.654;2022-11-15T06:12:18;9.50;99.90
36660;DHT22;22654;51.054;3.654;2022-11-15T06:15:03;9.40;99.90
36660;DHT22;22654;51.054;3.654;2022-11-15T06:17:47;9.30;99.90
36660;DHT22;22654;51.054;3.654;2022-11-15T06:20:32;9.40;99.90
36660;DHT22;22654;51.054;3.654;2022-11-15T06:23:16;9.30;99.90
36660;DHT22;22654;51.054;3.654;2022-11-15T06:26:02;9.40;99.90
36660;DHT22;22654;51.054;3.654;2022-11-15T06:28:46;9.30;99.90
36660;DHT22;22654;51.054;3.654;2022-11-15T06:31:31;9.40;99.90
36660;DHT22;22654;51.054;3.654;2022-11-15T06:34:16;9.30;99.90
36660;DHT22;22654;51.054;3.654;2022-11-15T06:37:00;9.20;99.90
36660;DHT22;22654;51.054;3.654;2022-11-15T06:39:44;9.30;99.90
36660;DHT22;22654;51.054;3.654;2022-11-15T06:42:28;9.30;99.90
36660;DHT22;22654;51.054;3.654;2022-11-15T06:45:13;9.30;99.90
36660;DHT22;22654;51.054;3.654;2022-11-15T06:47:58;9.30;99.90
36660;DHT22;22654;51.054;3.654;2022-11-15T06:50:42;9.30;99.90
36660;DHT22;22654;51.054;3.654;2022-11-15T06:53:27;9.30;99.90
36660;DHT22;22654;51.054;3.654;2022-11-15T06:56:12;9.30;99.90
36660;DHT22;22654;51.054;3.654;2022-11-15T06:58:56;9.20;99.90
36660;DHT22;22654;51.054;3.654;2022-11-15T07:01:41;9.30;99.90
36660;DHT22;22654;51.054;3.654;2022-11-15T07:04:25;9.30;99.90
36660;DHT22;22654;51.054;3.654;2022-11-15T07:07:10;9.30;99.90
36660;DHT22;22654;51.054;3.654;2022-11-15T07:09:54;9.20;99.90
36660;DHT22;22654;51.054;3.654;2022-11-15T07:12:38;9.20;99.90
36660;DHT22;22654;51.054;3.654;2022-11-15T07:15:24;9.20;99.90
36660;DHT22;22654;51.054;3.654;2022-11-15T07:18:09;9.30;99.90
36660;DHT22;22654;51.054;3.654;2022-11-15T07:20:54;9.30;99.90
36660;DHT22;22654;51.054;3.654;2022-11-15T07:23:39;9.30;99.90
36660;DHT22;22654;51.054;3.654;2022-11-15T07:26:23;9.30;99.90
36660;DHT22;22654;51.054;3.654;2022-11-15T07:29:07;9.30;99.90
36660;DHT22;22654;51.054;3.654;2022-11-15T07:31:52;9.30;99.90
36660;DHT22;22654;51.054;3.654;2022-11-15T07:34:36;9.40;99.90
36660;DHT22;22654;51.054;3.654;2022-11-15T07:37:20;9.40;99.90
36660;DHT22;22654;51.054;3.654;2022-11-15T07:40:05;9.40;99.90
36660;DHT22;22654;51.054;3.654;2022-11-15T07:42:49;9.50;99.90
36660;DHT22;22654;51.054;3.654;2022-11-15T07:45:44;9.60;99.90
36660;DHT22;22654;51.054;3.654;2022-11-15T07:48:28;9.70;99.90
36660;DHT22;22654;51.054;3.654;2022-11-15T07:51:15;9.80;99.90
36660;DHT22;22654;51.054;3.654;2022-11-15T07:53:59;9.80;99.90
36660;DHT22;22654;51.054;3.654;2022-11-15T07:56:44;9.80;99.90
36660;DHT22;22654;51.054;3.654;2022-11-15T07:59:28;9.80;99.90
36660;DHT22;22654;51.054;3.654;2022-11-15T08:02:13;9.80;99.90
36660;DHT22;22654;51.054;3.654;2022-11-15T08:04:57;9.90;99.90
36660;DHT22;22654;51.054;3.654;2022-11-15T08:07:41;9.80;99.90
36660;DHT22;22654;51.054;3.654;2022-11-15T08:10:26;9.90;99.90
36660;DHT22;22654;51.054;3.654;2022-11-15T08:13:12;10.00;99.90
36660;DHT22;22654;51.054;3.654;2022-11-15T08:16:01;10.00;99.90
36660;DHT22;22654;51.054;3.654;2022-11-15T08:18:45;10.10;99.90
36660;DHT22;22654;51.054;3.654;2022-11-15T08:21:30;10.20;99.90
36660;DHT22;22654;51.054;3.654;2022-11-15T08:24:14;10.10;99.90
36660;DHT22;22654;51.054;3.654;2022-11-15T08:26:59;10.20;99.90
36660;DHT22;22654;51.054;3.654;2022-11-15T08:29:44;10.20;99.90
36660;DHT22;22654;51.054;3.654;2022-11-15T08:32:31;10.30;99.90
36660;DHT22;22654;51.054;3.654;2022-11-15T08:35:16;10.40;99.90
36660;DHT22;22654;51.054;3.654;2022-11-15T08:38:00;10.50;99.90
36660;DHT22;22654;51.054;3.654;2022-11-15T08:40:44;10.50;99.90
36660;DHT22;22654;51.054;3.654;2022-11-15T08:43:29;10.60;99.90
36660;DHT22;22654;51.054;3.654;2022-11-15T08:46:13;10.60;99.90
36660;DHT22;22654;51.054;3.654;2022-11-15T08:48:57;10.70;99.90
36660;DHT22;22654;51.054;3.654;2022-11-15T08:51:42;10.80;99.90
36660;DHT22;22654;51.054;3.654;2022-11-15T08:54:26;11.00;99.90
36660;DHT22;22654;51.054;3.654;2022-11-15T08:57:11;11.10;99.90
36660;DHT22;22654;51.054;3.654;2022-11-15T08:59:55;11.10;99.90
36660;DHT22;22654;51.054;3.654;2022-11-15T09:02:40;11.10;99.90
36660;DHT22;22654;51.054;3.654;2022-11-15T09:05:25;11.20;99.90
36660;DHT22;22654;51.054;3.654;2022-11-15T09:08:10;11.20;99.90
36660;DHT22;22654;51.054;3.654;2022-11-15T09:10:55;11.20;99.90
36660;DHT22;22654;51.054;3.654;2022-11-15T09:13:40;11.20;99.90
36660;DHT22;22654;51.054;3.654;2022-11-15T09:16:24;11.20;99.90
36660;DHT22;22654;51.054;3.654;2022-11-15T09:19:09;11.30;99.90
36660;DHT22;22654;51.054;3.654;2022-11-15T09:21:53;11.30;99.90
36660;DHT22;22654;51.054;3.654;2022-11-15T09:24:37;11.40;99.90
36660;DHT22;22654;51.054;3.654;2022-11-15T09:27:22;11.40;99.90
36660;DHT22;22654;51.054;3.654;2022-11-15T09:30:07;11.40;99.90
36660;DHT22;22654;51.054;3.654;2022-11-15T09:32:51;11.40;99.90
36660;DHT22;22654;51.054;3.654;2022-11-15T09:35:36;11.50;99.90
36660;DHT22;22654;51.054;3.654;2022-11-15T09:38:21;11.60;99.90
36660;DHT22;22654;51.054;3.654;2022-11-15T09:50:21;11.90;99.90
36660;DHT22;22654;51.054;3.654;2022-11-15T09:52:51;11.90;99.90
36660;DHT22;22654;51.054;3.654;2022-11-15T09:55:37;12.00;99.90
36660;DHT22;22654;51.054;3.654;2022-11-15T09:58:22;12.00;99.90
36660;DHT22;22654;51.054;3.654;2022-11-15T10:00:51;12.10;99.90
36660;DHT22;22654;51.054;3.654;2022-11-15T10:03:33;12.20;99.90
36660;DHT22;22654;51.054;3.654;2022-11-15T10:06:02;12.30;99.90
36660;DHT22;22654;51.054;3.654;2022-11-15T10:09:06;12.40;99.90
36660;DHT22;22654;51.054;3.654;2022-11-15T10:11:35;12.30;99.90
36660;DHT22;22654;51.054;3.654;2022-11-15T10:14:15;12.20;99.90
36660;DHT22;22654;51.054;3.654;2022-11-15T10:17:24;12.10;99.90
36660;DHT22;22654;51.054;3.654;2022-11-15T10:20:14;12.10;99.90
36660;DHT22;22654;51.054;3.654;2022-11-15T10:25:22;12.20;99.90
36660;DHT22;22654;51.054;3.654;2022-11-15T10:28:15;12.20;99.90
36660;DHT22;22654;51.054;3.654;2022-11-15T10:30:49;12.40;99.90
36660;DHT22;22654;51.054;3.654;2022-11-15T10:38:52;12.40;99.90
36660;DHT22;22654;51.054;3.654;2022-11-15T10:43:45;12.30;99.90
36660;DHT22;22654;51.054;3.654;2022-11-15T10:46:20;12.40;99.90
36660;DHT22;22654;51.054;3.654;2022-11-15T10:48:46;12.50;99.90
36660;DHT22;22654;51.054;3.654;2022-11-15T10:51:27;12.60;99.90
36660;DHT22;22654;51.054;3.654;2022-11-15T10:53:57;12.90;99.90
36660;DHT22;22654;51.054;3.654;2022-11-15T10:56:26;12.90;99.90
36660;DHT22;22654;51.054;3.654;2022-11-15T10:58:58;13.00;99.90
36660;DHT22;22654;51.054;3.654;2022-11-15T11:01:26;13.10;99.90
36660;DHT22;22654;51.054;3.654;2022-11-15T11:04:02;13.10;99.90
36660;DHT22;22654;51.054;3.654;2022-11-15T11:06:29;13.20;99.90
36660;DHT22;22654;51.054;3.654;2022-11-15T11:09:04;13.20;99.90
36660;DHT22;22654;51.054;3.654;2022-11-15T11:11:49;13.30;99.90
36660;DHT22;22654;51.054;3.654;2022-11-15T11:14:29;13.30;99.90
36660;DHT22;22654;51.054;3.654;2022-11-15T11:23:03;13.40;99.90
36660;DHT22;22654;51.054;3.654;2022-11-15T11:34:04;13.60;99.90
36660;DHT22;22654;51.054;3.654;2022-11-15T11:39:25;13.50;99.90
36660;DHT22;22654;51.054;3.654;2022-11-15T11:47:23;13.70;99.90
36660;DHT22;22654;51.054;3.654;2022-11-15T11:50:24;13.70;99.90
36660;DHT22;22654;51.054;3.654;2022-11-15T11:55:22;13.60;99.90
36660;DHT22;22654;51.054;3.654;2022-11-15T12:00:27;13.70;99.90
36660;DHT22;22654;51.054;3.654;2022-11-15T12:03:05;13.80;99.90
36660;DHT22;22654;51.054;3.654;2022-11-15T12:05:57;13.80;99.90
36660;DHT22;22654;51.054;3.654;2022-11-15T12:11:38;13.70;99.90
36660;DHT22;22654;51.054;3.654;2022-11-15T12:14:51;13.80;99.90
36660;DHT22;22654;51.054;3.654;2022-11-15T12:17:11;13.90;99.90
36660;DHT22;22654;51.054;3.654;2022-11-15T12:19:37;13.90;99.90
36660;DHT22;22654;51.054;3.654;2022-11-15T12:24:59;13.60;99.90
36660;DHT22;22654;51.054;3.654;2022-11-15T12:27:51;13.70;99.90
36660;DHT22;22654;51.054;3.654;2022-11-15T12:30:21;13.70;99.90
36660;DHT22;22654;51.054;3.654;2022-11-15T12:32:58;13.70;99.90
36660;DHT22;22654;51.054;3.654;2022-11-15T12:35:39;13.60;99.90
36660;DHT22;22654;51.054;3.654;2022-11-15T12:38:10;13.70;99.90
36660;DHT22;22654;51.054;3.654;2022-11-15T12:40:38;13.70;99.90
36660;DHT22;22654;51.054;3.654;2022-11-15T12:46:03;13.70;99.90
36660;DHT22;22654;51.054;3.654;2022-11-15T12:48:52;13.80;99.90
36660;DHT22;22654;51.054;3.654;2022-11-15T12:52:08;14.00;99.90
36660;DHT22;22654;51.054;3.654;2022-11-15T13:02:40;13.90;99.90
36660;DHT22;22654;51.054;3.654;2022-11-15T13:17:46;13.70;99.90
36660;DHT22;22654;51.054;3.654;2022-11-15T13:20:20;13.70;99.90
36660;DHT22;22654;51.054;3.654;2022-11-15T13:30:56;13.60;99.90
36660;DHT22;22654;51.054;3.654;2022-11-15T13:33:41;13.50;99.90
36660;DHT22;22654;51.054;3.654;2022-11-15T13:36:25;13.50;99.90
36660;DHT22;22654;51.054;3.654;2022-11-15T13:39:00;13.50;99.90
36660;DHT22;22654;51.054;3.654;2022-11-15T13:41:50;13.40;99.90
36660;DHT22;22654;51.054;3.654;2022-11-15T13:44:33;13.40;99.90
36660;DHT22;22654;51.054;3.654;2022-11-15T13:49:33;13.40;99.90
36660;DHT22;22654;51.054;3.654;2022-11-15T13:52:02;13.40;99.90
36660;DHT22;22654;51.054;3.654;2022-11-15T13:54:37;13.50;99.90
36660;DHT22;22654;51.054;3.654;2022-11-15T13:57:19;13.50;99.90
36660;DHT22;22654;51.054;3.654;2022-11-15T13:59:49;13.50;99.90
36660;DHT22;22654;51.054;3.654;2022-11-15T14:02:26;13.30;99.90
36660;DHT22;22654;51.054;3.654;2022-11-15T14:07:40;13.10;99.90
36660;DHT22;22654;51.054;3.654;2022-11-15T14:12:51;12.90;99.90
36660;DHT22;22654;51.054;3.654;2022-11-15T14:15:38;12.90;99.90
36660;DHT22;22654;51.054;3.654;2022-11-15T14:18:05;12.80;99.90
36660;DHT22;22654;51.054;3.654;2022-11-15T14:20:37;12.80;99.90
36660;DHT22;22654;51.054;3.654;2022-11-15T14:23:18;12.80;99.90
36660;DHT22;22654;51.054;3.654;2022-11-15T14:25:53;12.70;99.90
36660;DHT22;22654;51.054;3.654;2022-11-15T14:28:31;12.70;99.90
36660;DHT22;22654;51.054;3.654;2022-11-15T14:30:59;12.60;99.90
36660;DHT22;22654;51.054;3.654;2022-11-15T14:33:33;12.70;99.90
36660;DHT22;22654;51.054;3.654;2022-11-15T14:36:19;12.60;99.90
36660;DHT22;22654;51.054;3.654;2022-11-15T14:38:47;12.50;99.90
36660;DHT22;22654;51.054;3.654;2022-11-15T14:41:22;12.50;99.90
36660;DHT22;22654;51.054;3.654;2022-11-15T14:43:50;12.40;99.90
36660;DHT22;22654;51.054;3.654;2022-11-15T14:46:16;12.40;99.90
36660;DHT22;22654;51.054;3.654;2022-11-15T14:48:41;12.40;99.90
36660;DHT22;22654;51.054;3.654;2022-11-15T14:51:17;12.30;99.90
36660;DHT22;22654;51.054;3.654;2022-11-15T14:53:43;12.20;99.90
36660;DHT22;22654;51.054;3.654;2022-11-15T14:56:11;12.20;99.90
36660;DHT22;22654;51.054;3.654;2022-11-15T14:58:37;12.10;99.90
36660;DHT22;22654;51.054;3.654;2022-11-15T15:01:16;12.10;99.90
36660;DHT22;22654;51.054;3.654;2022-11-15T15:03:43;12.00;99.90
36660;DHT22;22654;51.054;3.654;2022-11-15T15:06:09;12.00;99.90
36660;DHT22;22654;51.054;3.654;2022-11-15T15:08:38;11.90;99.90
36660;DHT22;22654;51.054;3.654;2022-11-15T15:11:12;11.90;99.90
36660;DHT22;22654;51.054;3.654;2022-11-15T15:13:39;11.90;99.90
36660;DHT22;22654;51.054;3.654;2022-11-15T15:16:05;11.80;99.90
36660;DHT22;22654;51.054;3.654;2022-11-15T15:18:34;11.90;99.90
36660;DHT22;22654;51.054;3.654;2022-11-15T15:21:00;11.90;99.90
36660;DHT22;22654;51.054;3.654;2022-11-15T15:23:33;12.00;99.90
36660;DHT22;22654;51.054;3.654;2022-11-15T15:26:01;12.00;99.90
36660;DHT22;22654;51.054;3.654;2022-11-15T15:28:26;12.00;99.90
36660;DHT22;22654;51.054;3.654;2022-11-15T15:30:52;11.90;99.90
36660;DHT22;22654;51.054;3.654;2022-11-15T15:33:18;11.90;99.90
36660;DHT22;22654;51.054;3.654;2022-11-15T15:35:44;11.90;99.90
36660;DHT22;22654;51.054;3.654;2022-11-15T15:38:11;11.90;99.90
36660;DHT22;22654;51.054;3.654;2022-11-15T15:40:38;12.00;99.90
36660;DHT22;22654;51.054;3.654;2022-11-15T15:43:04;12.00;99.90
36660;DHT22;22654;51.054;3.654;2022-11-15T15:45:30;12.10;99.90
36660;DHT22;22654;51.054;3.654;2022-11-15T15:47:57;12.20;99.90
36660;DHT22;22654;51.054;3.654;2022-11-15T15:50:24;12.10;99.90
36660;DHT22;22654;51.054;3.654;2022-11-15T15:52:56;12.10;99.90
36660;DHT22;22654;51.054;3.654;2022-11-15T15:55:23;12.00;99.90
36660;DHT22;22654;51.054;3.654;2022-11-15T15:57:49;12.00;99.90
36660;DHT22;22654;51.054;3.654;2022-11-15T16:00:16;12.10;99.90
36660;DHT22;22654;51.054;3.654;2022-11-15T16:02:43;12.20;99.90
36660;DHT22;22654;51.054;3.654;2022-11-15T16:05:10;12.20;99.90
36660;DHT22;22654;51.054;3.654;2022-11-15T16:07:36;12.10;99.90
36660;DHT22;22654;51.054;3.654;2022-11-15T16:12:40;12.20;99.90
36660;DHT22;22654;51.054;3.654;2022-11-15T16:15:07;12.10;99.90
36660;DHT22;22654;51.054;3.654;2022-11-15T16:17:37;12.10;99.90
36660;DHT22;22654;51.054;3.654;2022-11-15T16:20:04;12.20;99.90
36660;DHT22;22654;51.054;3.654;2022-11-15T16:22:30;12.30;99.90
36660;DHT22;22654;51.054;3.654;2022-11-15T16:24:56;12.30;99.90
36660;DHT22;22654;51.054;3.654;2022-11-15T16:27:22;12.30;99.90
36660;DHT22;22654;51.054;3.654;2022-11-15T16:29:49;12.40;99.90
36660;DHT22;22654;51.054;3.654;2022-11-15T16:32:15;12.30;99.90
36660;DHT22;22654;51.054;3.654;2022-11-15T16:34:42;12.40;99.90
36660;DHT22;22654;51.054;3.654;2022-11-15T16:37:22;12.40;99.90
36660;DHT22;22654;51.054;3.654;2022-11-15T16:39:48;12.30;99.90
36660;DHT22;22654;51.054;3.654;2022-11-15T16:42:14;12.40;99.90
36660;DHT22;22654;51.054;3.654;2022-11-15T16:44:40;12.40;99.90
36660;DHT22;22654;51.054;3.654;2022-11-15T16:47:18;12.50;99.90
36660;DHT22;22654;51.054;3.654;2022-11-15T16:49:47;12.50;99.90
36660;DHT22;22654;51.054;3.654;2022-11-15T16:52:13;12.50;99.90
36660;DHT22;22654;51.054;3.654;2022-11-15T16:54:39;12.50;99.90
36660;DHT22;22654;51.054;3.654;2022-11-15T16:57:05;12.50;99.90
36660;DHT22;22654;51.054;3.654;2022-11-15T16:59:30;12.50;99.90
36660;DHT22;22654;51.054;3.654;2022-11-15T17:01:58;12.60;99.90
36660;DHT22;22654;51.054;3.654;2022-11-15T17:04:23;12.60;99.90
36660;DHT22;22654;51.054;3.654;2022-11-15T17:06:49;12.80;99.90
36660;DHT22;22654;51.054;3.654;2022-11-15T17:09:20;12.90;99.90
36660;DHT22;22654;51.054;3.654;2022-11-15T17:11:48;12.80;99.90
36660;DHT22;22654;51.054;3.654;2022-11-15T17:14:15;12.80;99.90
36660;DHT22;22654;51.054;3.654;2022-11-15T17:16:41;12.70;99.90
36660;DHT22;22654;51.054;3.654;2022-11-15T17:19:13;12.60;99.90
36660;DHT22;22654;51.054;3.654;2022-11-15T17:21:40;12.70;99.90
36660;DHT22;22654;51.054;3.654;2022-11-15T17:24:06;12.70;99.90
36660;DHT22;22654;51.054;3.654;2022-11-15T17:26:32;12.60;99.90
36660;DHT22;22654;51.054;3.654;2022-11-15T17:28:58;12.60;99.90
36660;DHT22;22654;51.054;3.654;2022-11-15T17:31:26;12.60;99.90
36660;DHT22;22654;51.054;3.654;2022-11-15T17:33:52;12.70;99.90
36660;DHT22;22654;51.054;3.654;2022-11-15T17:36:18;12.80;99.90
36660;DHT22;22654;51.054;3.654;2022-11-15T17:38:44;12.90;99.90
36660;DHT22;22654;51.054;3.654;2022-11-15T17:41:15;12.80;99.90
36660;DHT22;22654;51.054;3.654;2022-11-15T17:43:41;12.70;99.90
36660;DHT22;22654;51.054;3.654;2022-11-15T17:46:12;12.60;99.90
36660;DHT22;22654;51.054;3.654;2022-11-15T17:48:39;12.60;99.90
36660;DHT22;22654;51.054;3.654;2022-11-15T17:51:06;12.50;99.90
36660;DHT22;22654;51.054;3.654;2022-11-15T17:53:34;12.50;99.90
36660;DHT22;22654;51.054;3.654;2022-11-15T17:56:03;12.40;99.90
36660;DHT22;22654;51.054;3.654;2022-11-15T17:58:30;12.40;99.90
36660;DHT22;22654;51.054;3.654;2022-11-15T18:03:33;12.30;99.90
36660;DHT22;22654;51.054;3.654;2022-11-15T18:05:58;12.40;99.90
36660;DHT22;22654;51.054;3.654;2022-11-15T18:08:24;12.40;99.90
36660;DHT22;22654;51.054;3.654;2022-11-15T18:10:59;12.40;99.90
36660;DHT22;22654;51.054;3.654;2022-11-15T18:13:25;12.40;99.90
36660;DHT22;22654;51.054;3.654;2022-11-15T18:15:54;12.40;99.90
36660;DHT22;22654;51.054;3.654;2022-11-15T18:18:28;12.30;99.90
36660;DHT22;22654;51.054;3.654;2022-11-15T18:21:15;12.40;99.90
36660;DHT22;22654;51.054;3.654;2022-11-15T18:23:42;12.30;99.90
36660;DHT22;22654;51.054;3.654;2022-11-15T18:26:13;12.30;99.90
36660;DHT22;22654;51.054;3.654;2022-11-15T18:28:41;12.40;99.90
36660;DHT22;22654;51.054;3.654;2022-11-15T18:31:32;12.40;99.90
36660;DHT22;22654;51.054;3.654;2022-11-15T18:33:59;12.40;99.90
36660;DHT22;22654;51.054;3.654;2022-11-15T18:36:27;12.50;99.90
36660;DHT22;22654;51.054;3.654;2022-11-15T18:38:58;12.50;99.90
36660;DHT22;22654;51.054;3.654;2022-11-15T18:41:24;12.60;99.90
36660;DHT22;22654;51.054;3.654;2022-11-15T18:43:53;12.60;99.90
36660;DHT22;22654;51.054;3.654;2022-11-15T18:46:21;12.60;99.90
36660;DHT22;22654;51.054;3.654;2022-11-15T18:48:49;12.60;99.90
36660;DHT22;22654;51.054;3.654;2022-11-15T18:51:20;12.60;99.90
36660;DHT22;22654;51.054;3.654;2022-11-15T18:53:47;12.60;99.90
36660;DHT22;22654;51.054;3.654;2022-11-15T18:56:15;12.60;99.90
36660;DHT22;22654;51.054;3.654;2022-11-15T18:58:43;12.60;99.90
36660;DHT22;22654;51.054;3.654;2022-11-15T19:03:38;12.70;99.90